Time;durP1;ratioP1;P1;durP2;ratioP2;P2;SDS_P1;SDS_P2;PMS_P1;PMS_P2;Temp;Humidity;BMP_temperature;BMP_pressure;BME280_temperature;BME280_humidity;BME280_pressure;Samples;Min_cycle;Max_cycle;Signal;HPM_P1;HPM_P2
2024/03/31 00:00:09;;;;;;;0.45;0.45;;;;;;;7.72;100.00;97680.53;5054551;28;20623;-58
2024/03/31 00:02:39;;;;;;;0.30;0.30;;;;;;;7.72;100.00;97688.53;5047014;28;20040;-58
2024/03/31 00:05:06;;;;;;;0.30;0.30;;;;;;;7.88;100.00;97691.25;5047667;28;20528;-59
2024/03/31 00:07:33;;;;;;;0.30;0.30;;;;;;;8.03;100.00;97701.16;5059488;28;20047;-58
2024/03/31 00:10:00;;;;;;;0.30;0.30;;;;;;;8.00;100.00;97703.28;5049145;28;20491;-59
2024/03/31 00:12:27;;;;;;;0.30;0.30;;;;;;;8.08;100.00;97699.31;5058755;28;20136;-58
2024/03/31 00:14:55;;;;;;;0.30;0.30;;;;;;;8.11;100.00;97688.13;5053404;28;20070;-58
2024/03/31 00:17:21;;;;;;;0.20;0.20;;;;;;;8.19;100.00;97695.59;5049469;28;20029;-59
2024/03/31 00:19:48;;;;;;;0.35;0.35;;;;;;;8.14;100.00;97697.47;5058028;28;20310;-59
2024/03/31 00:22:14;;;;;;;0.20;0.20;;;;;;;7.69;100.00;97698.94;5056296;28;20051;-59
2024/03/31 00:24:42;;;;;;;0.40;0.40;;;;;;;7.76;100.00;97702.13;5056743;28;20458;-59
2024/03/31 00:27:08;;;;;;;0.30;0.30;;;;;;;7.84;100.00;97704.31;5054678;28;20047;-59
2024/03/31 00:29:38;;;;;;;0.30;0.30;;;;;;;7.73;100.00;97697.31;5056428;28;20040;-58
2024/03/31 00:32:06;;;;;;;0.32;0.32;;;;;;;7.70;100.00;97703.19;5050291;28;20052;-59
2024/03/31 00:34:33;;;;;;;0.32;0.32;;;;;;;7.74;100.00;97698.94;5058240;28;20047;-58
2024/03/31 00:36:59;;;;;;;0.28;0.28;;;;;;;7.60;100.00;97703.16;5049540;28;20036;-58
2024/03/31 00:39:26;;;;;;;0.40;0.40;;;;;;;7.40;100.00;97699.31;5053714;28;20076;-57
2024/03/31 00:41:53;;;;;;;0.30;0.30;;;;;;;7.46;100.00;97710.81;5051893;28;20045;-58
2024/03/31 00:44:21;;;;;;;0.40;0.40;;;;;;;7.55;100.00;97709.25;5047428;28;20690;-58
2024/03/31 00:46:47;;;;;;;0.40;0.40;;;;;;;7.51;100.00;97716.16;5052834;28;20425;-58
2024/03/31 00:49:15;;;;;;;0.30;0.30;;;;;;;7.54;100.00;97699.66;5052805;28;20056;-58
2024/03/31 00:51:41;;;;;;;0.40;0.40;;;;;;;7.58;100.00;97706.06;5042865;28;20044;-59
2024/03/31 00:54:09;;;;;;;0.40;0.40;;;;;;;7.59;100.00;97706.88;5048097;28;20134;-60
2024/03/31 00:56:35;;;;;;;0.40;0.40;;;;;;;7.66;100.00;97702.09;5054710;28;20780;-58
2024/03/31 00:59:02;;;;;;;0.40;0.40;;;;;;;7.73;100.00;97708.78;5056963;28;20051;-58
2024/03/31 01:01:29;;;;;;;0.30;0.30;;;;;;;7.74;100.00;97698.94;5036377;28;20554;-58
2024/03/31 01:03:57;;;;;;;0.30;0.30;;;;;;;7.82;100.00;97703.78;5048957;28;20127;-58
2024/03/31 01:06:24;;;;;;;0.40;0.40;;;;;;;7.97;100.00;97703.81;5057815;28;20058;-59
2024/03/31 01:08:52;;;;;;;0.30;0.30;;;;;;;8.07;100.00;97702.25;5052821;28;20270;-58
2024/03/31 01:11:19;;;;;;;0.22;0.22;;;;;;;8.10;100.00;97704.38;5056838;28;20055;-60
2024/03/31 01:13:46;;;;;;;0.47;0.47;;;;;;;8.05;100.00;97707.03;5046697;28;20460;-58
2024/03/31 01:16:12;;;;;;;0.30;0.30;;;;;;;7.98;100.00;97705.41;5055674;28;20057;-58
2024/03/31 01:18:39;;;;;;;0.30;0.30;;;;;;;7.99;100.00;97701.69;5045880;28;20049;-58
2024/03/31 01:21:07;;;;;;;0.30;0.30;;;;;;;7.93;100.00;97701.94;5046296;28;20135;-58
2024/03/31 01:23:38;;;;;;;0.38;0.38;;;;;;;7.98;100.00;97700.06;5053648;28;20492;-57
2024/03/31 01:26:05;;;;;;;0.30;0.30;;;;;;;8.04;100.00;97702.75;5051064;28;20041;-58
2024/03/31 01:28:33;;;;;;;0.30;0.30;;;;;;;8.07;100.00;97707.59;5052472;28;20449;-58
2024/03/31 01:30:59;;;;;;;0.40;0.40;;;;;;;8.09;100.00;97710.81;5053337;28;20132;-58
2024/03/31 01:33:27;;;;;;;0.20;0.20;;;;;;;8.17;100.00;97703.06;5053966;28;20044;-59
2024/03/31 01:35:53;;;;;;;0.20;0.20;;;;;;;8.16;100.00;97701.47;5048141;28;20534;-58
2024/03/31 01:38:20;;;;;;;0.30;0.30;;;;;;;8.03;100.00;97709.16;5056068;28;20233;-59
2024/03/31 01:40:46;;;;;;;0.30;0.30;;;;;;;7.96;100.00;97704.06;5036967;28;20060;-59
2024/03/31 01:43:15;;;;;;;0.30;0.30;;;;;;;8.05;100.00;97715.03;5051285;28;20056;-58
2024/03/31 01:45:41;;;;;;;0.20;0.20;;;;;;;8.05;100.00;97709.72;5047046;28;20524;-58
2024/03/31 01:48:08;;;;;;;0.28;0.28;;;;;;;8.11;100.00;97708.66;5052278;28;20271;-59
2024/03/31 01:50:34;;;;;;;0.30;0.30;;;;;;;8.07;100.00;97712.94;5056969;28;20051;-58
2024/03/31 01:53:02;;;;;;;0.30;0.30;;;;;;;8.07;100.00;97703.03;5049221;28;20053;-58
2024/03/31 01:55:28;;;;;;;0.30;0.30;;;;;;;7.99;100.00;97701.69;5072183;28;20044;-58
2024/03/31 01:57:55;;;;;;;0.30;0.30;;;;;;;7.87;100.00;97706.47;5049185;28;20048;-59
2024/03/31 02:00:23;;;;;;;0.25;0.25;;;;;;;7.79;100.00;97698.97;5081776;28;20656;-58
2024/03/31 02:02:50;;;;;;;0.30;0.30;;;;;;;7.67;100.00;97703.72;5051832;28;20051;-59
2024/03/31 02:05:16;;;;;;;0.28;0.28;;;;;;;7.70;100.00;97704.00;5051327;28;20154;-58
2024/03/31 02:07:43;;;;;;;0.30;0.30;;;;;;;7.74;100.00;97705.09;5041947;28;20041;-58
2024/03/31 02:10:10;;;;;;;0.30;0.30;;;;;;;7.84;100.00;97706.16;5049556;28;20043;-58
2024/03/31 02:12:38;;;;;;;0.20;0.20;;;;;;;7.88;100.00;97705.38;5046986;28;20075;-58
2024/03/31 02:15:04;;;;;;;0.30;0.30;;;;;;;7.91;100.00;97712.06;5054783;28;20045;-58
2024/03/31 02:17:34;;;;;;;0.20;0.20;;;;;;;7.82;100.00;97717.13;5046385;28;20558;-59
2024/03/31 02:20:00;;;;;;;0.22;0.22;;;;;;;7.73;100.00;97714.13;5083795;28;20136;-59
2024/03/31 02:22:27;;;;;;;0.20;0.20;;;;;;;7.70;100.00;97717.31;5048404;28;22359;-59
2024/03/31 02:24:53;;;;;;;0.30;0.30;;;;;;;7.70;100.00;97720.00;5050088;28;20405;-59
2024/03/31 02:27:20;;;;;;;0.30;0.30;;;;;;;7.78;100.00;97718.69;5052116;28;20045;-59
2024/03/31 02:29:48;;;;;;;0.30;0.30;;;;;;;7.72;100.00;97720.53;5034146;28;20059;-59
2024/03/31 02:32:15;;;;;;;0.30;0.30;;;;;;;7.66;100.00;97718.09;5062229;28;20045;-59
2024/03/31 02:34:46;;;;;;;0.38;0.38;;;;;;;7.63;100.00;97715.97;5045684;28;20094;-58
2024/03/31 02:37:16;;;;;;;0.30;0.30;;;;;;;7.67;100.00;97714.38;5053267;28;20798;-58
2024/03/31 02:39:43;;;;;;;0.30;0.30;;;;;;;7.62;100.00;97717.03;5049668;28;20119;-58
2024/03/31 02:42:10;;;;;;;0.30;0.30;;;;;;;7.62;100.00;97717.03;5052651;28;20045;-59
2024/03/31 02:44:37;;;;;;;0.28;0.28;;;;;;;7.50;100.00;97718.03;5044018;28;20037;-58
2024/03/31 02:47:04;;;;;;;0.30;0.30;;;;;;;7.36;100.00;97714.22;5068161;28;20047;-58
2024/03/31 02:49:32;;;;;;;0.40;0.40;;;;;;;7.44;100.00;97712.91;5050852;28;20045;-58
2024/03/31 02:52:00;;;;;;;0.25;0.25;;;;;;;7.43;100.00;97714.78;5084183;28;20048;-58
2024/03/31 02:54:26;;;;;;;0.20;0.20;;;;;;;7.41;100.00;97721.44;5047358;28;20055;-58
2024/03/31 02:56:53;;;;;;;0.30;0.30;;;;;;;7.30;100.00;97710.72;5053033;28;20399;-58
2024/03/31 02:59:20;;;;;;;0.20;0.20;;;;;;;7.34;100.00;97705.69;5051590;28;20038;-58
2024/03/31 03:01:47;;;;;;;0.30;0.30;;;;;;;7.33;100.00;97698.75;5054466;28;20064;-59
2024/03/31 03:04:13;;;;;;;0.40;0.40;;;;;;;7.34;100.00;97701.16;5041141;28;20053;-59
2024/03/31 03:06:40;;;;;;;0.30;0.30;;;;;;;7.34;100.00;97692.38;5047096;28;20135;-58
2024/03/31 03:09:07;;;;;;;0.30;0.30;;;;;;;7.44;100.00;97692.41;5048450;28;20052;-59
2024/03/31 03:11:35;;;;;;;0.38;0.38;;;;;;;7.40;100.00;97696.66;5050551;28;20068;-59
2024/03/31 03:14:01;;;;;;;0.30;0.30;;;;;;;7.36;100.00;97698.22;5052690;28;20036;-58
2024/03/31 03:16:32;;;;;;;0.30;0.30;;;;;;;7.37;100.00;97689.19;5061185;28;20688;-59
2024/03/31 03:18:58;;;;;;;0.30;0.30;;;;;;;7.33;100.00;97688.09;5046885;28;20549;-58
2024/03/31 03:21:25;;;;;;;0.20;0.20;;;;;;;7.40;100.00;97683.34;5055693;28;20060;-59
2024/03/31 03:23:51;;;;;;;0.30;0.30;;;;;;;7.38;100.00;97674.78;5055265;28;20052;-59
2024/03/31 03:26:19;;;;;;;0.30;0.30;;;;;;;7.28;100.00;97672.88;5060707;28;20036;-58
2024/03/31 03:28:46;;;;;;;0.30;0.30;;;;;;;7.19;100.00;97669.13;5051586;28;20167;-58
2024/03/31 03:31:13;;;;;;;0.30;0.30;;;;;;;7.33;100.00;97672.09;5050010;28;20028;-58
2024/03/31 03:33:42;;;;;;;0.30;0.30;;;;;;;7.35;100.00;97675.31;5053799;28;20033;-58
2024/03/31 03:36:10;;;;;;;0.30;0.30;;;;;;;7.45;100.00;97675.34;5050979;28;20076;-58
2024/03/31 03:38:37;;;;;;;0.30;0.30;;;;;;;7.27;100.00;97663.28;5050467;28;20045;-58
2024/03/31 03:41:05;;;;;;;0.40;0.40;;;;;;;7.17;100.00;97641.13;5055488;28;20816;-58
2024/03/31 03:43:33;;;;;;;0.30;0.30;;;;;;;7.17;100.00;97643.78;5055025;28;20063;-58
2024/03/31 03:46:05;;;;;;;0.20;0.20;;;;;;;7.12;100.00;97639.22;5055523;28;20371;-58
2024/03/31 03:48:34;;;;;;;0.30;0.30;;;;;;;7.18;100.00;97637.38;5053736;28;20517;-58
2024/03/31 03:51:02;;;;;;;0.50;0.50;;;;;;;7.00;100.00;97628.75;5054530;28;20048;-58
2024/03/31 03:53:29;;;;;;;0.30;0.30;;;;;;;7.07;100.00;97625.88;5051868;28;20068;-59
2024/03/31 03:55:55;;;;;;;0.32;0.32;;;;;;;7.45;100.00;97626.56;5058896;28;20040;-57
2024/03/31 03:58:22;;;;;;;0.30;0.30;;;;;;;7.46;100.00;97612.16;5047411;28;20045;-58
2024/03/31 04:00:50;;;;;;;0.28;0.28;;;;;;;7.46;100.00;97602.34;5050198;28;20055;-58
2024/03/31 04:03:18;;;;;;;0.32;0.32;;;;;;;7.52;100.00;97579.16;5052109;28;20044;-57
2024/03/31 04:05:52;;;;;;;0.40;0.40;;;;;;;7.35;100.00;97580.16;5088749;27;20064;-58
2024/03/31 04:08:19;;;;;;;0.30;0.30;;;;;;;7.43;100.00;97591.38;5060230;28;20045;-59
2024/03/31 04:10:47;;;;;;;0.30;0.30;;;;;;;7.44;100.00;97599.13;5051532;28;20069;-58
2024/03/31 04:13:14;;;;;;;0.30;0.30;;;;;;;7.41;100.00;97604.97;5050341;28;20071;-58
2024/03/31 04:15:41;;;;;;;0.30;0.30;;;;;;;7.50;100.00;97603.41;5055843;28;20036;-58
2024/03/31 04:18:08;;;;;;;0.30;0.30;;;;;;;7.47;100.00;97613.78;5054028;28;20557;-58
2024/03/31 04:20:41;;;;;;;0.43;0.43;;;;;;;7.33;100.00;97616.13;5051789;28;20124;-58
2024/03/31 04:23:07;;;;;;;0.30;0.30;;;;;;;7.37;100.00;97611.88;5054815;28;20044;-59
2024/03/31 04:25:34;;;;;;;0.30;0.30;;;;;;;7.30;100.00;97625.44;5050981;28;20045;-58
2024/03/31 04:28:00;;;;;;;0.35;0.35;;;;;;;7.24;100.00;97625.66;5054308;28;20127;-58
2024/03/31 04:30:27;;;;;;;0.40;0.40;;;;;;;7.17;100.00;97627.78;5050520;28;21950;-58
2024/03/31 04:32:54;;;;;;;0.40;0.40;;;;;;;7.23;100.00;97619.53;5052268;28;20051;-58
2024/03/31 04:35:23;;;;;;;0.30;0.30;;;;;;;7.19;100.00;97620.31;5055194;28;20051;-58
2024/03/31 04:37:49;;;;;;;0.30;0.30;;;;;;;7.28;100.00;97616.09;5055027;28;20040;-57
2024/03/31 04:40:17;;;;;;;0.40;0.40;;;;;;;7.25;100.00;97616.63;5080241;28;20593;-57
2024/03/31 04:42:43;;;;;;;0.30;0.30;;;;;;;7.26;100.00;97618.22;5053399;28;20119;-58
2024/03/31 04:45:10;;;;;;;0.30;0.30;;;;;;;7.24;100.00;97615.00;5054712;28;20045;-58
2024/03/31 04:47:36;;;;;;;0.47;0.47;;;;;;;7.30;100.00;97614.78;5053230;28;20451;-58
2024/03/31 04:50:04;;;;;;;0.50;0.50;;;;;;;7.34;100.00;97615.09;5059310;28;20143;-58
2024/03/31 04:52:32;;;;;;;0.57;0.57;;;;;;;7.35;100.00;97622.00;5056400;28;20772;-58
2024/03/31 04:55:03;;;;;;;0.50;0.50;;;;;;;7.37;100.00;97622.56;5054637;28;20045;-59
2024/03/31 04:57:29;;;;;;;0.80;0.80;;;;;;;7.22;100.00;97619.81;5037491;28;20053;-59
2024/03/31 04:59:56;;;;;;;0.80;0.80;;;;;;;7.31;100.00;97615.56;5050043;28;20580;-58
2024/03/31 05:02:22;;;;;;;0.40;0.40;;;;;;;7.38;100.00;97610.81;5062399;28;20522;-58
2024/03/31 05:04:49;;;;;;;0.82;0.82;;;;;;;7.27;100.00;97603.84;5046202;28;20833;-59
2024/03/31 05:07:17;;;;;;;0.25;0.25;;;;;;;7.43;100.00;97612.69;5048075;28;20491;-59
2024/03/31 05:09:45;;;;;;;0.40;0.40;;;;;;;7.43;100.00;97626.03;5045262;28;20037;-59
2024/03/31 05:12:11;;;;;;;0.45;0.45;;;;;;;7.39;100.00;97630.25;5052384;28;20056;-58
2024/03/31 05:14:38;;;;;;;0.88;0.88;;;;;;;7.17;100.00;97623.25;5048790;28;20040;-59
2024/03/31 05:17:06;;;;;;;0.60;0.60;;;;;;;7.34;100.00;97615.88;5049956;28;20049;-58
2024/03/31 05:19:33;;;;;;;0.70;0.70;;;;;;;7.40;100.00;97618.56;5052674;28;20402;-58
2024/03/31 05:21:59;;;;;;;0.60;0.60;;;;;;;7.41;100.00;97609.50;5048262;28;20040;-59
2024/03/31 05:24:26;;;;;;;0.75;0.75;;;;;;;7.08;100.00;97609.63;5049473;28;20579;-58
2024/03/31 05:26:54;;;;;;;0.80;0.80;;;;;;;7.07;100.00;97616.03;5051579;28;20538;-58
2024/03/31 05:29:21;;;;;;;0.40;0.40;;;;;;;7.25;100.00;97620.09;5054704;28;20351;-59
2024/03/31 05:31:48;;;;;;;0.93;0.93;;;;;;;7.22;100.00;97623.28;5050041;28;20098;-59
2024/03/31 05:34:25;;;;;;;1.30;1.20;;;;;;;7.22;100.00;97627.81;5072264;28;20119;-58
2024/03/31 05:36:52;;;;;;;0.60;0.60;;;;;;;7.32;100.00;97630.53;5046299;28;20049;-58
2024/03/31 05:39:19;;;;;;;1.30;1.20;;;;;;;7.16;100.00;97639.50;5052516;28;20543;-59
2024/03/31 05:41:45;;;;;;;1.20;1.10;;;;;;;7.14;100.00;97637.13;5053836;28;20135;-59
2024/03/31 05:44:16;;;;;;;0.70;0.70;;;;;;;7.12;100.00;97639.22;5054168;28;20044;-59
2024/03/31 05:46:42;;;;;;;0.60;0.60;;;;;;;7.24;100.00;97636.34;5057457;28;20501;-58
2024/03/31 05:49:10;;;;;;;0.50;0.50;;;;;;;7.16;100.00;97639.50;5044724;28;20676;-58
2024/03/31 05:51:37;;;;;;;0.90;0.90;;;;;;;7.27;100.00;97647.28;5050252;28;20064;-58
2024/03/31 05:54:04;;;;;;;0.30;0.30;;;;;;;7.52;100.00;97641.25;5053469;28;20064;-59
2024/03/31 05:56:31;;;;;;;0.60;0.60;;;;;;;7.50;100.00;97638.06;5046454;28;20124;-59
2024/03/31 05:58:58;;;;;;;0.47;0.47;;;;;;;7.49;100.00;97631.13;5051852;28;20055;-58
2024/03/31 06:01:25;;;;;;;0.60;0.60;;;;;;;7.53;100.00;97632.19;5049814;28;20041;-58
2024/03/31 06:03:55;;;;;;;0.40;0.40;;;;;;;7.82;100.00;97630.97;5051873;28;20064;-58
2024/03/31 06:06:21;;;;;;;0.30;0.30;;;;;;;7.93;100.00;97644.03;5059870;28;20052;-59
2024/03/31 06:08:48;;;;;;;0.22;0.22;;;;;;;7.89;100.00;97652.84;5050495;28;20131;-58
2024/03/31 06:11:15;;;;;;;0.25;0.25;;;;;;;7.90;100.00;97647.25;5051561;28;20072;-58
2024/03/31 06:13:43;;;;;;;0.30;0.30;;;;;;;7.83;100.00;97649.34;5053646;28;20132;-59
2024/03/31 06:16:10;;;;;;;0.60;0.60;;;;;;;7.76;100.00;97643.47;5051836;28;20045;-59
2024/03/31 06:18:43;;;;;;;0.47;0.47;;;;;;;7.89;100.00;97634.97;5038774;28;20053;-59
2024/03/31 06:21:10;;;;;;;0.40;0.40;;;;;;;8.13;100.00;97626.47;5042502;28;20502;-58
2024/03/31 06:23:37;;;;;;;0.40;0.40;;;;;;;8.07;100.00;97624.88;5050904;28;20066;-58
2024/03/31 06:26:04;;;;;;;0.40;0.40;;;;;;;8.03;100.00;97634.47;5051041;28;20132;-59
2024/03/31 06:28:33;;;;;;;0.47;0.47;;;;;;;8.10;100.00;97640.34;5051179;28;20049;-59
2024/03/31 06:30:59;;;;;;;0.30;0.30;;;;;;;7.94;100.00;97626.19;5046929;28;20041;-58
2024/03/31 06:33:28;;;;;;;0.30;0.30;;;;;;;8.20;100.00;97632.34;5053756;28;20262;-58
2024/03/31 06:35:58;;;;;;;0.20;0.20;;;;;;;8.36;100.00;97623.28;5055763;28;20548;-58
2024/03/31 06:38:25;;;;;;;0.50;0.50;;;;;;;8.48;100.00;97617.69;5052684;28;20050;-58
2024/03/31 06:40:51;;;;;;;0.30;0.30;;;;;;;8.54;100.00;97623.84;5054380;28;20055;-58
2024/03/31 06:43:19;;;;;;;0.30;0.30;;;;;;;8.74;100.00;97618.47;5048449;28;20059;-59
2024/03/31 06:45:48;;;;;;;0.30;0.30;;;;;;;8.88;100.00;97620.59;5052990;28;20380;-58
2024/03/31 06:48:16;;;;;;;0.30;0.30;;;;;;;9.02;100.00;97618.97;5047642;28;20092;-59
2024/03/31 06:50:43;;;;;;;0.30;0.30;;;;;;;9.42;100.00;97620.69;5044489;28;20804;-59
2024/03/31 06:53:11;;;;;;;0.50;0.50;;;;;;;10.66;100.00;97609.97;5049960;28;20045;-59
2024/03/31 06:55:37;;;;;;;0.30;0.30;;;;;;;10.69;100.00;97594.16;5054481;28;20040;-58
2024/03/31 06:58:05;;;;;;;0.30;0.30;;;;;;;10.89;100.00;97592.38;5054318;28;20059;-59
2024/03/31 07:00:32;;;;;;;0.30;0.30;;;;;;;10.07;100.00;97582.34;5087794;28;21306;-59
2024/03/31 07:02:59;;;;;;;0.20;0.20;;;;;;;10.38;100.00;97558.00;5051176;28;20377;-59
2024/03/31 07:05:26;;;;;;;0.20;0.20;;;;;;;11.08;100.00;97552.19;5056742;28;20534;-58
2024/03/31 07:07:54;;;;;;;0.20;0.20;;;;;;;10.94;100.00;97546.75;5054924;28;20037;-59
2024/03/31 07:10:23;;;;;;;0.28;0.28;;;;;;;11.22;100.00;97553.09;5052259;28;20067;-59
2024/03/31 07:12:50;;;;;;;0.20;0.20;;;;;;;11.74;100.00;97558.59;5057146;28;20055;-58
2024/03/31 07:15:17;;;;;;;0.40;0.40;;;;;;;13.58;100.00;97560.75;5058171;28;20792;-59
2024/03/31 07:17:44;;;;;;;0.20;0.20;;;;;;;13.08;100.00;97569.53;5070347;28;20152;-58
2024/03/31 07:20:10;;;;;;;0.30;0.30;;;;;;;13.40;100.00;97583.19;5051625;28;20053;-59
2024/03/31 07:22:40;;;;;;;0.20;0.20;;;;;;;13.76;100.00;97585.91;5046548;28;20123;-58
2024/03/31 07:25:07;;;;;;;0.30;0.30;;;;;;;14.15;100.00;97584.47;5058445;28;20048;-59
2024/03/31 07:27:35;;;;;;;0.40;0.40;;;;;;;15.95;90.97;97578.59;5060038;28;20281;-59
2024/03/31 07:30:02;;;;;;;0.30;0.30;;;;;;;16.45;86.91;97572.69;5083728;28;20037;-59
2024/03/31 07:32:30;;;;;;;0.13;0.13;;;;;;;16.70;86.64;97570.22;5047525;28;20593;-58
2024/03/31 07:34:56;;;;;;;0.20;0.20;;;;;;;17.43;79.77;97553.88;5053187;28;20131;-59
2024/03/31 07:37:24;;;;;;;0.20;0.20;;;;;;;17.43;80.20;97553.88;5055550;28;20140;-59
2024/03/31 07:39:50;;;;;;;0.17;0.17;;;;;;;16.60;83.73;97547.81;5059268;28;20541;-59
2024/03/31 07:42:17;;;;;;;0.10;0.10;;;;;;;17.81;79.52;97548.38;5054275;28;20547;-59
2024/03/31 07:44:44;;;;;;;0.10;0.10;;;;;;;18.28;77.76;97542.69;5049990;28;20045;-59
2024/03/31 07:47:11;;;;;;;0.10;0.10;;;;;;;17.71;78.07;97547.94;5054549;28;20250;-59
2024/03/31 07:49:40;;;;;;;0.15;0.15;;;;;;;17.19;77.72;97539.00;5052058;28;20045;-58
2024/03/31 07:52:07;;;;;;;0.10;0.10;;;;;;;17.25;82.19;97539.63;5045079;28;20101;-58
2024/03/31 07:54:37;;;;;;;0.10;0.10;;;;;;;17.74;79.04;97539.16;5049642;28;20068;-58
2024/03/31 07:57:05;;;;;;;0.10;0.10;;;;;;;17.68;74.34;97531.22;5053090;28;20044;-59
2024/03/31 07:59:31;;;;;;;0.08;0.08;;;;;;;16.73;81.17;97527.09;5056304;28;20721;-58
2024/03/31 08:02:00;;;;;;;0.10;0.10;;;;;;;16.32;87.25;97522.28;5046834;28;20045;-58
2024/03/31 08:04:26;;;;;;;0.10;0.10;;;;;;;16.02;84.76;97526.78;5054906;28;20071;-58
2024/03/31 08:06:53;;;;;;;0.10;0.10;;;;;;;14.93;92.25;97528.34;5057707;28;20553;-58
2024/03/31 08:09:19;;;;;;;0.20;0.20;;;;;;;15.65;87.69;97526.25;5058156;28;20088;-58
2024/03/31 08:11:46;;;;;;;0.10;0.10;;;;;;;15.66;86.63;97523.25;5054827;28;20094;-58
2024/03/31 08:14:12;;;;;;;0.13;0.13;;;;;;;14.60;95.70;97523.31;5054843;28;20060;-59
2024/03/31 08:16:40;;;;;;;0.20;0.20;;;;;;;15.86;89.37;97510.25;5056662;28;20048;-59
2024/03/31 08:19:07;;;;;;;0.10;0.10;;;;;;;16.45;84.91;97513.19;5054521;28;20399;-58
2024/03/31 08:21:34;;;;;;;0.10;0.10;;;;;;;16.83;88.22;97509.75;5056078;28;20041;-58
2024/03/31 08:24:01;;;;;;;0.10;0.10;;;;;;;16.95;87.92;97501.72;5049531;28;20056;-59
2024/03/31 08:26:28;;;;;;;0.10;0.10;;;;;;;17.17;83.98;97508.78;5053064;28;20037;-58
2024/03/31 08:28:54;;;;;;;0.10;0.10;;;;;;;17.63;81.68;97509.75;5051627;28;20792;-58
2024/03/31 08:31:21;;;;;;;0.17;0.17;;;;;;;16.19;89.73;97513.25;5052910;28;20084;-58
2024/03/31 08:33:47;;;;;;;0.10;0.10;;;;;;;16.49;89.21;97500.59;5044720;28;20060;-58
2024/03/31 08:36:16;;;;;;;0.10;0.10;;;;;;;15.62;95.58;97500.69;5048743;28;20041;-58
2024/03/31 08:38:42;;;;;;;0.10;0.10;;;;;;;14.71;100.00;97504.94;5050712;28;20098;-58
2024/03/31 08:41:10;;;;;;;0.15;0.15;;;;;;;14.26;100.00;97505.00;5054923;28;20060;-58
2024/03/31 08:43:40;;;;;;;0.10;0.10;;;;;;;15.63;98.40;97510.38;5043740;28;20388;-59
2024/03/31 08:46:07;;;;;;;0.17;0.17;;;;;;;15.63;96.42;97502.28;5057691;28;20050;-58
2024/03/31 08:48:36;;;;;;;0.20;0.20;;;;;;;16.33;92.05;97504.97;5052275;28;20098;-58
2024/03/31 08:51:03;;;;;;;0.10;0.10;;;;;;;16.65;89.71;97503.59;5049026;28;20036;-58
2024/03/31 08:53:31;;;;;;;0.10;0.10;;;;;;;16.77;87.96;97495.59;5048879;28;20044;-59
2024/03/31 08:55:58;;;;;;;0.10;0.10;;;;;;;15.51;93.16;97505.59;5055272;28;20453;-58
2024/03/31 08:58:26;;;;;;;0.10;0.10;;;;;;;15.85;94.44;97516.75;5047505;28;20717;-58
2024/03/31 09:00:55;;;;;;;0.10;0.10;;;;;;;16.67;90.16;97512.16;5055273;28;20120;-59
2024/03/31 09:03:21;;;;;;;0.20;0.20;;;;;;;17.35;85.81;97516.81;5057897;28;20060;-59
2024/03/31 09:05:49;;;;;;;0.10;0.10;;;;;;;18.10;80.35;97506.03;5057854;28;20098;-59
2024/03/31 09:08:15;;;;;;;0.00;0.00;;;;;;;17.76;83.95;97499.75;5055042;28;20717;-58
2024/03/31 09:10:45;;;;;;;0.10;0.10;;;;;;;17.32;85.66;97504.69;5049970;28;20033;-59
2024/03/31 09:13:11;;;;;;;0.10;0.10;;;;;;;18.01;82.22;97497.97;5053838;28;20106;-58
2024/03/31 09:15:39;;;;;;;0.03;0.03;;;;;;;16.76;82.17;97501.31;5054771;28;20048;-59
2024/03/31 09:18:05;;;;;;;0.10;0.10;;;;;;;17.67;82.25;97494.44;5055486;28;20052;-58
2024/03/31 09:20:32;;;;;;;0.10;0.10;;;;;;;16.97;80.40;97504.09;5038507;28;20048;-58
2024/03/31 09:22:59;;;;;;;0.08;0.08;;;;;;;16.82;84.73;97508.13;5057030;28;20048;-58
2024/03/31 09:25:26;;;;;;;0.10;0.10;;;;;;;17.55;84.92;97518.72;5057363;28;20044;-58
2024/03/31 09:27:54;;;;;;;0.10;0.10;;;;;;;18.60;81.54;97515.91;5057042;28;20131;-59
2024/03/31 09:30:23;;;;;;;0.10;0.10;;;;;;;18.69;79.34;97513.06;5049501;28;20410;-58
2024/03/31 09:32:51;;;;;;;0.10;0.10;;;;;;;19.36;74.17;97510.94;5052652;28;20127;-58
2024/03/31 09:35:18;;;;;;;0.10;0.10;;;;;;;19.87;73.92;97515.94;5055551;28;20044;-58
2024/03/31 09:37:44;;;;;;;0.10;0.10;;;;;;;19.63;74.51;97508.66;5056807;28;20601;-59
2024/03/31 09:40:13;;;;;;;0.10;0.10;;;;;;;19.93;72.67;97515.38;5048889;28;20671;-58
2024/03/31 09:42:40;;;;;;;0.10;0.10;;;;;;;20.59;67.79;97521.41;5054773;28;20126;-58
2024/03/31 09:45:11;;;;;;;0.10;0.10;;;;;;;20.74;68.35;97522.56;5053871;28;20044;-58
2024/03/31 09:47:43;;;;;;;0.00;0.00;;;;;;;19.82;69.89;97519.72;5046307;28;20147;-59
2024/03/31 09:50:16;;;;;;;0.10;0.10;;;;;;;20.80;69.32;97515.75;5046179;28;20605;-57
2024/03/31 09:52:43;;;;;;;0.00;0.00;;;;;;;20.90;66.88;97516.00;5046063;28;20041;-60
2024/03/31 09:55:11;;;;;;;0.10;0.10;;;;;;;20.04;70.68;97524.63;5053439;28;20636;-58
2024/03/31 09:57:41;;;;;;;0.00;0.00;;;;;;;21.10;67.57;97518.81;5052324;28;20044;-58
2024/03/31 10:00:14;;;;;;;0.00;0.00;;;;;;;20.59;67.43;97521.41;5045815;28;21553;-58
2024/03/31 10:02:41;;;;;;;0.00;0.00;;;;;;;16.82;83.03;97518.97;5046761;28;21191;-58
2024/03/31 10:05:11;;;;;;;0.00;0.00;;;;;;;17.31;82.94;97513.94;5049800;28;20056;-58
2024/03/31 10:07:38;;;;;;;0.00;0.00;;;;;;;18.99;75.88;97508.25;5050979;28;20051;-57
2024/03/31 10:10:06;;;;;;;0.00;0.00;;;;;;;18.69;78.56;97504.91;5049466;28;20129;-58
2024/03/31 10:12:32;;;;;;;0.00;0.00;;;;;;;17.61;82.81;97511.19;5047629;28;20163;-58
2024/03/31 10:14:59;;;;;;;0.00;0.00;;;;;;;16.52;77.05;97507.28;5049241;28;20048;-58
2024/03/31 10:17:27;;;;;;;0.00;0.00;;;;;;;17.25;79.16;97507.94;5047546;28;20048;-58
2024/03/31 10:19:54;;;;;;;0.10;0.10;;;;;;;16.67;74.61;97508.66;5047736;28;20033;-58
2024/03/31 10:22:20;;;;;;;0.10;0.10;;;;;;;16.36;76.65;97509.72;5047286;28;20067;-58
2024/03/31 10:24:48;;;;;;;0.10;0.10;;;;;;;17.24;77.00;97497.41;5056801;28;20438;-58
2024/03/31 10:27:15;;;;;;;0.10;0.10;;;;;;;17.43;74.54;97495.06;5058110;28;20493;-58
2024/03/31 10:29:45;;;;;;;0.10;0.10;;;;;;;18.22;66.90;97489.81;5053794;28;20105;-58
2024/03/31 10:32:11;;;;;;;0.00;0.00;;;;;;;17.18;74.81;97493.34;5052519;28;20057;-58
2024/03/31 10:34:40;;;;;;;0.10;0.10;;;;;;;17.56;67.58;97490.50;5051175;28;20419;-58
2024/03/31 10:37:07;;;;;;;0.10;0.10;;;;;;;16.98;75.24;97484.84;5058041;28;20742;-58
2024/03/31 10:39:35;;;;;;;0.10;0.10;;;;;;;16.26;77.21;97491.91;5059151;28;20670;-58
2024/03/31 10:42:01;;;;;;;0.05;0.05;;;;;;;16.65;77.42;97494.66;5051344;28;20052;-58
2024/03/31 10:44:28;;;;;;;0.10;0.10;;;;;;;15.89;72.54;97498.81;5056409;28;20055;-58
2024/03/31 10:46:55;;;;;;;0.13;0.13;;;;;;;16.98;71.77;97492.97;5056090;28;20048;-58
2024/03/31 10:49:36;;;;;;;0.20;0.20;;;;;;;17.12;71.02;97481.09;5057764;28;20048;-58
2024/03/31 10:52:04;;;;;;;0.10;0.10;;;;;;;19.18;65.96;97478.59;5046745;28;20522;-57
2024/03/31 10:54:34;;;;;;;0.20;0.20;;;;;;;17.00;71.77;97481.81;5045493;28;20511;-58
2024/03/31 10:57:02;;;;;;;0.10;0.10;;;;;;;16.38;74.22;97486.66;5061240;28;20064;-58
2024/03/31 10:59:30;;;;;;;0.10;0.10;;;;;;;16.85;76.31;97485.88;5053569;28;20049;-58
2024/03/31 11:01:57;;;;;;;0.10;0.10;;;;;;;16.92;76.18;97480.72;5057252;28;20208;-58
2024/03/31 11:04:25;;;;;;;0.10;0.10;;;;;;;18.40;71.26;97476.06;5051575;28;20098;-58
2024/03/31 11:06:51;;;;;;;0.10;0.10;;;;;;;17.48;75.47;97474.34;5061382;28;20076;-58
2024/03/31 11:09:20;;;;;;;0.10;0.10;;;;;;;18.16;72.24;97464.03;5058197;28;20127;-58
2024/03/31 11:11:46;;;;;;;0.10;0.10;;;;;;;18.09;65.58;97469.19;5051871;28;20833;-58
2024/03/31 11:14:13;;;;;;;0.10;0.10;;;;;;;17.88;67.85;97467.31;5053421;28;20041;-58
2024/03/31 11:16:39;;;;;;;0.10;0.10;;;;;;;18.30;65.00;97463.72;5052645;28;20037;-58
2024/03/31 11:19:07;;;;;;;0.10;0.10;;;;;;;16.93;70.21;97462.59;5051541;28;20068;-59
2024/03/31 11:21:33;;;;;;;0.10;0.10;;;;;;;16.32;71.61;97469.00;5046118;28;20108;-58
2024/03/31 11:24:00;;;;;;;0.10;0.10;;;;;;;16.86;71.70;97460.38;5050386;28;20108;-59
2024/03/31 11:26:28;;;;;;;0.03;0.03;;;;;;;17.41;66.77;97456.69;5035217;28;20060;-58
2024/03/31 11:28:55;;;;;;;0.00;0.00;;;;;;;16.56;66.15;97456.84;5049310;28;20052;-58
2024/03/31 11:31:21;;;;;;;0.10;0.10;;;;;;;16.36;67.43;97448.31;5048089;28;20688;-59
2024/03/31 11:33:48;;;;;;;0.10;0.10;;;;;;;15.55;70.45;97457.19;5052296;28;20048;-59